Time;durP1;ratioP1;P1;durP2;ratioP2;P2;SDS_P1;SDS_P2;PMS_P1;PMS_P2;Temp;Humidity;BMP_temperature;BMP_pressure;BME280_temperature;BME280_humidity;BME280_pressure;Samples;Min_cycle;Max_cycle;Signal;HPM_P1;HPM_P2
2022/11/20 00:01:11;;;;;;;2.20;1.20;;;10.70;38.00;;;;;;5048707;28;20932;-71
2022/11/20 00:03:37;;;;;;;2.30;1.25;;;10.70;39.30;;;;;;5046219;28;20662;-70
2022/11/20 00:06:05;;;;;;;2.50;1.30;;;11.00;37.30;;;;;;5041143;28;20264;-71
2022/11/20 00:08:31;;;;;;;2.65;1.55;;;10.80;37.20;;;;;;5051427;28;20421;-70
2022/11/20 00:10:57;;;;;;;2.30;1.17;;;10.50;38.30;;;;;;5051579;28;20180;-71
2022/11/20 00:13:23;;;;;;;3.23;2.10;;;10.50;38.40;;;;;;5048697;28;20226;-71
2022/11/20 00:15:48;;;;;;;2.20;1.20;;;10.70;38.40;;;;;;5043988;28;20451;-70
2022/11/20 00:18:14;;;;;;;2.57;1.57;;;10.90;38.00;;;;;;5049455;28;20470;-70
2022/11/20 00:20:39;;;;;;;2.20;1.10;;;11.00;37.60;;;;;;5051430;28;20172;-70
2022/11/20 00:23:06;;;;;;;2.20;1.20;;;10.90;37.20;;;;;;5050699;28;20184;-70
2022/11/20 00:25:34;;;;;;;2.22;1.17;;;10.90;38.00;;;;;;5047752;28;20558;-70
2022/11/20 00:28:00;;;;;;;2.42;1.35;;;10.60;38.60;;;;;;5038334;28;20234;-69
2022/11/20 00:30:25;;;;;;;2.47;1.60;;;10.20;39.50;;;;;;5048922;28;20203;-70
2022/11/20 00:32:51;;;;;;;2.10;1.10;;;10.40;39.90;;;;;;5050994;28;20210;-70
2022/11/20 00:35:17;;;;;;;2.13;1.13;;;10.60;39.40;;;;;;5049371;28;20201;-71
2022/11/20 00:37:43;;;;;;;3.78;2.00;;;10.60;39.70;;;;;;5031036;28;20200;-70
2022/11/20 00:40:09;;;;;;;2.40;1.53;;;10.80;38.10;;;;;;5050910;28;20256;-70
2022/11/20 00:42:35;;;;;;;2.10;1.20;;;11.00;37.50;;;;;;5049331;28;20252;-70
2022/11/20 00:45:00;;;;;;;2.10;1.10;;;10.90;37.70;;;;;;5050405;28;20213;-71
2022/11/20 00:47:26;;;;;;;2.30;1.20;;;10.70;38.60;;;;;;5035692;28;20641;-70
2022/11/20 00:49:51;;;;;;;2.93;1.43;;;10.50;38.90;;;;;;5048531;28;20192;-70
2022/11/20 00:52:17;;;;;;;2.97;1.50;;;10.60;39.20;;;;;;5049154;28;20225;-70
2022/11/20 00:54:43;;;;;;;2.20;1.20;;;10.60;39.00;;;;;;5050024;28;20646;-70
2022/11/20 00:57:08;;;;;;;2.10;1.20;;;10.70;38.90;;;;;;5039684;28;20184;-70
2022/11/20 00:59:34;;;;;;;3.53;2.23;;;10.90;38.70;;;;;;5044894;28;20176;-71
2022/11/20 01:01:59;;;;;;;2.10;1.20;;;11.00;38.00;;;;;;5043061;28;20209;-70
2022/11/20 01:04:25;;;;;;;2.07;1.10;;;10.80;38.30;;;;;;5050396;28;20212;-70
2022/11/20 01:06:51;;;;;;;2.20;1.30;;;10.80;38.50;;;;;;5048590;28;20700;-70
2022/11/20 01:09:16;;;;;;;2.10;1.20;;;10.60;39.10;;;;;;5041200;28;20272;-70
2022/11/20 01:11:44;;;;;;;2.10;1.20;;;10.10;40.60;;;;;;5050075;28;20217;-72
2022/11/20 01:14:18;;;;;;;2.25;1.35;;;10.20;40.90;;;;;;5050050;28;20675;-70
2022/11/20 01:16:48;;;;;;;2.10;1.20;;;10.50;40.40;;;;;;5050600;28;20703;-71
2022/11/20 01:19:19;;;;;;;2.10;1.20;;;10.50;39.80;;;;;;5042359;28;20307;-71
2022/11/20 01:21:47;;;;;;;2.13;1.27;;;10.70;39.00;;;;;;5049849;28;20250;-70
2022/11/20 01:24:15;;;;;;;2.10;1.20;;;10.80;38.90;;;;;;5050452;28;20169;-71
2022/11/20 01:26:43;;;;;;;2.55;1.40;;;10.50;39.10;;;;;;5050716;28;20196;-71
2022/11/20 01:29:23;;;;;;;2.10;1.20;;;10.20;40.30;;;;;;5042753;28;20307;-71
2022/11/20 01:31:49;;;;;;;2.10;1.10;;;10.90;39.50;;;;;;5049304;28;20180;-70
2022/11/20 01:34:17;;;;;;;2.17;1.30;;;10.40;40.20;;;;;;5046541;28;20359;-70
2022/11/20 01:36:44;;;;;;;2.20;1.20;;;10.20;40.40;;;;;;5049735;28;20462;-70
2022/11/20 01:39:18;;;;;;;2.00;1.10;;;10.40;40.20;;;;;;5046685;28;20655;-70
2022/11/20 01:44:54;;;;;;;2.10;1.17;;;10.60;39.80;;;;;;5041630;28;20196;-70
2022/11/20 01:47:28;;;;;;;2.20;1.30;;;10.50;40.00;;;;;;5052717;28;20253;-71
2022/11/20 01:50:03;;;;;;;2.00;1.10;;;10.50;39.50;;;;;;5049762;28;20208;-70
2022/11/20 01:52:43;;;;;;;2.67;1.75;;;10.70;39.10;;;;;;5040123;28;20705;-72
2022/11/20 01:55:17;;;;;;;2.10;1.17;;;10.70;38.20;;;;;;5041536;28;20204;-70
2022/11/20 01:57:45;;;;;;;2.00;1.10;;;10.70;38.80;;;;;;5053394;28;20220;-70
2022/11/20 02:00:13;;;;;;;2.00;1.10;;;10.50;39.00;;;;;;5051132;28;20230;-70
2022/11/20 02:02:42;;;;;;;2.10;1.20;;;10.50;39.50;;;;;;5034022;28;20633;-70
2022/11/20 02:05:33;;;;;;;2.10;1.30;;;10.50;39.90;;;;;;5037642;28;20659;-72
2022/11/20 02:08:00;;;;;;;3.28;1.52;;;10.10;40.00;;;;;;5054122;28;20211;-70
2022/11/20 02:10:26;;;;;;;2.10;1.20;;;10.20;39.20;;;;;;5038477;28;20530;-69
2022/11/20 02:15:37;;;;;;;2.00;1.20;;;9.70;40.60;;;;;;5040435;28;20219;-70
2022/11/20 02:18:04;;;;;;;2.40;1.40;;;9.60;41.30;;;;;;5053916;28;20188;-70
2022/11/20 02:20:29;;;;;;;2.00;1.20;;;9.70;41.60;;;;;;5053024;28;20959;-70
2022/11/20 02:23:02;;;;;;;2.00;1.10;;;9.90;40.40;;;;;;5050846;28;20268;-70
2022/11/20 02:25:28;;;;;;;2.10;1.20;;;10.20;38.50;;;;;;5047305;28;20700;-70
2022/11/20 02:27:54;;;;;;;2.00;1.10;;;9.90;39.60;;;;;;5053589;28;20235;-70
2022/11/20 02:30:20;;;;;;;2.07;1.10;;;10.00;38.50;;;;;;5053843;28;20211;-70
2022/11/20 02:32:45;;;;;;;2.50;1.30;;;10.50;38.00;;;;;;5041403;28;20415;-70
2022/11/20 02:35:20;;;;;;;2.20;1.27;;;10.10;38.70;;;;;;5035345;28;20263;-72
2022/11/20 02:37:52;;;;;;;2.03;1.10;;;10.00;39.00;;;;;;5048926;28;20206;-70
2022/11/20 02:40:18;;;;;;;2.08;1.10;;;9.60;40.70;;;;;;5049965;28;20217;-70
2022/11/20 02:42:44;;;;;;;2.10;1.20;;;9.90;40.40;;;;;;5052109;28;20179;-69
2022/11/20 02:45:11;;;;;;;2.10;1.17;;;9.80;39.80;;;;;;5053247;28;20184;-70
2022/11/20 02:47:36;;;;;;;2.10;1.10;;;9.50;40.60;;;;;;5041901;28;20279;-69
2022/11/20 02:50:03;;;;;;;2.33;1.27;;;9.40;41.10;;;;;;5052482;28;20331;-71
2022/11/20 02:52:28;;;;;;;2.17;1.10;;;9.70;39.90;;;;;;5033105;28;20193;-70
2022/11/20 02:54:54;;;;;;;2.40;1.33;;;9.90;40.80;;;;;;5032887;28;20193;-70
2022/11/20 02:57:20;;;;;;;2.30;1.40;;;9.90;38.90;;;;;;5041307;28;20204;-70
2022/11/20 02:59:45;;;;;;;2.10;1.10;;;9.90;39.10;;;;;;5047272;28;20185;-70
2022/11/20 03:02:11;;;;;;;2.27;1.23;;;10.00;37.40;;;;;;5040199;28;20174;-71
2022/11/20 03:04:36;;;;;;;2.20;1.10;;;10.00;38.00;;;;;;5033055;28;20665;-70
2022/11/20 03:07:02;;;;;;;2.20;1.20;;;10.30;36.10;;;;;;5033378;28;20208;-70
2022/11/20 03:09:28;;;;;;;2.10;1.10;;;10.30;36.70;;;;;;5048379;28;20270;-70
2022/11/20 03:11:54;;;;;;;2.23;1.30;;;10.40;36.00;;;;;;5047564;28;20421;-70
2022/11/20 03:14:19;;;;;;;2.20;1.10;;;10.30;36.00;;;;;;5042463;28;20193;-70
2022/11/20 03:16:45;;;;;;;2.20;1.10;;;10.60;35.60;;;;;;5052548;28;20212;-70
2022/11/20 03:19:12;;;;;;;2.50;1.40;;;10.00;36.60;;;;;;5052878;28;20590;-70
2022/11/20 03:21:37;;;;;;;2.05;1.10;;;10.30;36.60;;;;;;5052556;28;20222;-70
2022/11/20 03:24:03;;;;;;;2.20;1.10;;;10.30;35.80;;;;;;5039549;28;20177;-70
2022/11/20 03:26:29;;;;;;;2.17;1.10;;;9.70;39.20;;;;;;5050520;28;20199;-70
2022/11/20 03:28:57;;;;;;;2.13;1.10;;;9.50;39.00;;;;;;5051869;28;20412;-69
2022/11/20 03:31:29;;;;;;;2.15;1.20;;;9.90;38.70;;;;;;5052405;28;20546;-70
2022/11/20 03:33:56;;;;;;;2.30;1.23;;;10.40;36.30;;;;;;5042064;28;20586;-70
2022/11/20 03:36:22;;;;;;;2.47;1.40;;;10.10;36.30;;;;;;5042586;28;20211;-70
2022/11/20 03:38:48;;;;;;;2.13;1.13;;;9.80;38.30;;;;;;5077147;22;20239;-68
2022/11/20 03:41:20;;;;;;;2.20;1.17;;;10.00;36.40;;;;;;5019072;28;20183;-67
2022/11/20 03:44:06;;;;;;;2.17;1.10;;;9.70;38.20;;;;;;5012332;28;20252;-67
2022/11/20 03:46:32;;;;;;;2.25;1.17;;;10.10;36.40;;;;;;5010207;28;20534;-67
2022/11/20 03:48:58;;;;;;;2.15;1.10;;;10.40;35.60;;;;;;5014358;28;20211;-67
2022/11/20 03:51:32;;;;;;;2.10;1.10;;;10.40;36.10;;;;;;5012950;28;20227;-67
2022/11/20 03:54:01;;;;;;;2.10;1.10;;;10.40;36.80;;;;;;5015186;28;20194;-67
2022/11/20 03:56:30;;;;;;;2.20;1.20;;;10.60;35.50;;;;;;5013545;28;20209;-67
2022/11/20 03:58:56;;;;;;;2.10;1.10;;;10.30;35.90;;;;;;5014703;28;20205;-67
2022/11/20 04:01:25;;;;;;;2.30;1.27;;;10.60;35.50;;;;;;5014735;28;20248;-67
2022/11/20 04:03:53;;;;;;;2.10;1.10;;;10.60;35.60;;;;;;5011615;28;20206;-66
2022/11/20 04:06:28;;;;;;;2.63;1.40;;;10.60;36.50;;;;;;5011018;28;20186;-67
2022/11/20 04:08:55;;;;;;;2.20;1.20;;;10.80;35.00;;;;;;5006454;28;20203;-67
2022/11/20 04:11:26;;;;;;;2.20;1.10;;;10.60;35.40;;;;;;5012502;28;20181;-67
2022/11/20 04:14:00;;;;;;;2.10;1.10;;;10.80;34.50;;;;;;5012160;28;20171;-67
2022/11/20 04:16:28;;;;;;;2.13;1.17;;;10.90;34.20;;;;;;5012034;28;20207;-67
2022/11/20 04:18:56;;;;;;;2.10;1.00;;;10.90;35.30;;;;;;5009627;28;20281;-68
2022/11/20 04:21:22;;;;;;;2.20;1.00;;;11.00;34.10;;;;;;5012961;28;20189;-66
2022/11/20 04:23:49;;;;;;;2.20;1.10;;;11.20;33.50;;;;;;5011863;28;20650;-67
2022/11/20 04:26:14;;;;;;;2.20;1.10;;;11.30;33.60;;;;;;5011753;28;20230;-67
2022/11/20 04:28:40;;;;;;;2.80;1.40;;;11.40;33.60;;;;;;5010228;28;20586;-68
2022/11/20 04:31:10;;;;;;;2.10;1.10;;;10.80;34.50;;;;;;5011854;28;20181;-67
2022/11/20 04:33:37;;;;;;;2.20;1.10;;;10.30;35.20;;;;;;4992373;28;20654;-67
2022/11/20 04:36:10;;;;;;;2.28;1.10;;;10.20;35.80;;;;;;4996377;28;20576;-67
2022/11/20 04:38:36;;;;;;;2.20;1.05;;;10.20;35.70;;;;;;5012704;28;20777;-66
2022/11/20 04:41:05;;;;;;;2.13;1.10;;;10.00;36.10;;;;;;5003265;28;20262;-67
2022/11/20 04:43:31;;;;;;;2.20;1.17;;;10.20;36.10;;;;;;5007892;28;20193;-67
2022/11/20 04:45:58;;;;;;;2.15;1.00;;;10.70;35.10;;;;;;4999298;28;20201;-67
2022/11/20 04:48:25;;;;;;;2.17;1.10;;;11.10;34.70;;;;;;5011139;28;20257;-67
2022/11/20 04:50:51;;;;;;;2.30;1.20;;;10.60;34.50;;;;;;5011262;28;20655;-67
2022/11/20 04:53:17;;;;;;;2.30;1.20;;;10.80;33.80;;;;;;5010625;28;20355;-67
2022/11/20 04:55:43;;;;;;;2.20;1.10;;;10.60;33.90;;;;;;5009153;28;20748;-67
2022/11/20 04:58:09;;;;;;;2.20;1.10;;;10.80;34.20;;;;;;5010547;28;20459;-67
2022/11/20 05:00:34;;;;;;;2.20;1.10;;;10.80;33.10;;;;;;5019811;28;20427;-66
2022/11/20 05:03:00;;;;;;;2.30;1.20;;;11.00;33.30;;;;;;5016805;28;20229;-68
2022/11/20 05:05:25;;;;;;;2.20;1.07;;;11.10;34.20;;;;;;5010992;28;20193;-67
2022/11/20 05:07:51;;;;;;;2.27;1.10;;;10.70;33.30;;;;;;5011224;28;20189;-67
2022/11/20 05:10:17;;;;;;;2.40;1.20;;;10.80;33.10;;;;;;5011815;28;20182;-67
2022/11/20 05:12:42;;;;;;;2.27;1.10;;;10.60;32.90;;;;;;5010726;28;20194;-67
2022/11/20 05:15:08;;;;;;;2.20;1.00;;;10.20;34.40;;;;;;5002918;28;20281;-67
2022/11/20 05:17:34;;;;;;;2.38;1.10;;;10.00;35.20;;;;;;5011273;28;20183;-67
2022/11/20 05:20:00;;;;;;;2.40;1.13;;;10.20;34.50;;;;;;5012839;28;20206;-67
2022/11/20 05:22:25;;;;;;;2.17;1.00;;;10.10;34.80;;;;;;5015449;28;20181;-67
2022/11/20 05:24:51;;;;;;;2.40;1.20;;;9.90;36.20;;;;;;5014996;28;20169;-67
2022/11/20 05:27:17;;;;;;;2.20;1.10;;;9.70;36.50;;;;;;5014505;28;20185;-67
2022/11/20 05:29:42;;;;;;;2.27;1.13;;;10.00;35.00;;;;;;5015118;28;20247;-67
2022/11/20 05:32:09;;;;;;;2.20;1.10;;;10.80;35.80;;;;;;5016062;28;20182;-67
2022/11/20 05:34:35;;;;;;;2.20;1.10;;;10.30;34.30;;;;;;5014659;28;20197;-67
2022/11/20 05:37:02;;;;;;;2.20;1.10;;;10.00;35.10;;;;;;5016111;28;20241;-67
2022/11/20 05:39:28;;;;;;;2.20;1.10;;;10.10;34.40;;;;;;5013968;28;20380;-67
2022/11/20 05:42:29;;;;;;;2.20;1.10;;;9.90;36.30;;;;;;5015715;28;20266;-68
2022/11/20 05:44:39;;;;;;;2.20;1.10;;;10.20;36.20;;;;;;5014694;28;20185;-67
2022/11/20 05:47:05;;;;;;;2.20;1.10;;;9.80;36.30;;;;;;5012755;28;20284;-67
2022/11/20 05:49:31;;;;;;;2.40;1.20;;;9.70;36.60;;;;;;5014577;28;20511;-67
2022/11/20 05:51:57;;;;;;;2.40;1.27;;;10.40;33.70;;;;;;5016792;28;20759;-67
2022/11/20 05:54:22;;;;;;;2.20;1.10;;;10.20;33.70;;;;;;5030971;28;20780;-67
2022/11/20 05:56:48;;;;;;;2.20;1.00;;;10.00;34.50;;;;;;5019644;28;20265;-66
2022/11/20 05:59:14;;;;;;;2.30;1.20;;;10.40;34.60;;;;;;5014225;28;20281;-66
2022/11/20 06:01:39;;;;;;;2.27;1.00;;;10.40;33.00;;;;;;5011747;28;20567;-67
2022/11/20 06:04:05;;;;;;;2.30;1.20;;;10.50;32.80;;;;;;5014217;28;20170;-67
2022/11/20 06:06:30;;;;;;;2.20;1.00;;;10.40;33.50;;;;;;5015502;28;20190;-67
2022/11/20 06:08:58;;;;;;;2.20;1.10;;;9.90;35.10;;;;;;5014320;28;20209;-67
2022/11/20 06:11:24;;;;;;;2.47;1.30;;;9.70;37.20;;;;;;5013485;28;20178;-67
2022/11/20 06:13:49;;;;;;;2.13;1.00;;;10.00;35.90;;;;;;5013647;28;20209;-67
2022/11/20 06:16:18;;;;;;;2.27;1.20;;;9.80;37.10;;;;;;5014980;28;20203;-67
2022/11/20 06:18:44;;;;;;;2.22;1.17;;;10.10;35.10;;;;;;5014299;28;20186;-67
2022/11/20 06:21:16;;;;;;;2.20;1.15;;;10.00;35.70;;;;;;5014192;28;20168;-66
2022/11/20 06:23:42;;;;;;;2.20;1.10;;;10.10;34.90;;;;;;5009868;28;20177;-67
2022/11/20 06:26:11;;;;;;;2.30;1.15;;;10.10;34.90;;;;;;5013918;28;20221;-66
2022/11/20 06:28:36;;;;;;;2.20;1.10;;;10.00;35.80;;;;;;5016106;28;20233;-66
2022/11/20 06:31:02;;;;;;;2.17;1.07;;;9.80;36.40;;;;;;5009613;28;20226;-66
2022/11/20 06:33:28;;;;;;;2.10;1.13;;;9.40;37.40;;;;;;5001889;28;20196;-67
2022/11/20 06:35:58;;;;;;;2.20;1.10;;;9.50;37.60;;;;;;5009028;28;20655;-66
2022/11/20 06:38:25;;;;;;;2.28;1.20;;;9.40;37.50;;;;;;5014249;28;20777;-66
2022/11/20 06:40:50;;;;;;;2.15;1.10;;;9.50;37.40;;;;;;5012346;28;20597;-66
2022/11/20 06:43:16;;;;;;;2.10;1.10;;;9.50;37.40;;;;;;5012878;28;20176;-67
2022/11/20 06:45:42;;;;;;;2.20;1.20;;;9.50;37.00;;;;;;5004667;28;20214;-67
2022/11/20 06:48:11;;;;;;;2.50;1.20;;;9.60;37.70;;;;;;5012822;28;20205;-66
2022/11/20 06:50:37;;;;;;;2.20;1.10;;;9.60;37.10;;;;;;5013348;28;20219;-67
2022/11/20 06:53:04;;;;;;;2.15;1.00;;;9.70;37.10;;;;;;5002561;28;20237;-67
2022/11/20 06:55:31;;;;;;;2.20;1.10;;;10.30;35.00;;;;;;5011108;28;20248;-67
2022/11/20 06:57:56;;;;;;;2.15;1.10;;;10.10;35.20;;;;;;5012960;28;20228;-67
2022/11/20 07:00:22;;;;;;;3.03;1.40;;;9.60;37.30;;;;;;5013259;28;20174;-66
2022/11/20 07:02:48;;;;;;;2.17;1.00;;;9.50;37.90;;;;;;5011530;28;20167;-67
2022/11/20 07:05:13;;;;;;;2.20;1.13;;;9.20;38.80;;;;;;5012154;28;20691;-67
2022/11/20 07:07:39;;;;;;;2.20;1.10;;;9.60;38.40;;;;;;5007866;28;20182;-67
2022/11/20 07:10:05;;;;;;;2.30;1.10;;;9.70;38.00;;;;;;5013092;28;20541;-67
2022/11/20 07:12:30;;;;;;;2.10;1.10;;;9.70;37.90;;;;;;5011561;28;20174;-67
2022/11/20 07:14:56;;;;;;;2.20;1.10;;;9.30;38.80;;;;;;5013079;28;20569;-66
2022/11/20 07:17:22;;;;;;;2.30;1.20;;;9.10;40.10;;;;;;5005358;28;20268;-67
2022/11/20 07:19:47;;;;;;;2.50;1.10;;;9.80;37.90;;;;;;5012653;28;20805;-67
2022/11/20 07:22:13;;;;;;;2.30;1.20;;;10.10;37.50;;;;;;5012652;28;20186;-66
2022/11/20 07:24:39;;;;;;;2.10;1.00;;;9.40;38.90;;;;;;5006812;28;20247;-67
2022/11/20 07:27:04;;;;;;;2.13;1.10;;;9.80;38.50;;;;;;5009835;28;20277;-66
2022/11/20 07:29:30;;;;;;;2.20;1.10;;;10.00;36.70;;;;;;5014552;28;20204;-67
2022/11/20 07:31:56;;;;;;;2.30;1.20;;;9.70;38.80;;;;;;5012648;28;20187;-67
2022/11/20 07:34:22;;;;;;;2.17;1.07;;;10.20;36.80;;;;;;5012154;28;20668;-67
2022/11/20 07:36:48;;;;;;;2.25;1.17;;;10.30;36.20;;;;;;5013121;28;20458;-67
2022/11/20 07:39:13;;;;;;;2.20;1.10;;;10.20;36.60;;;;;;5011923;28;20689;-67
2022/11/20 07:41:39;;;;;;;2.20;1.10;;;10.50;37.20;;;;;;5012606;28;20179;-68
2022/11/20 07:44:05;;;;;;;2.20;1.10;;;10.60;35.50;;;;;;5011995;28;20253;-67
2022/11/20 07:46:31;;;;;;;2.20;1.10;;;10.30;36.00;;;;;;5011655;28;20211;-68
2022/11/20 07:48:56;;;;;;;2.20;1.10;;;10.10;36.50;;;;;;5012396;28;20234;-68
2022/11/20 07:51:22;;;;;;;2.27;1.10;;;10.20;36.00;;;;;;5013484;28;20202;-68
2022/11/20 07:53:51;;;;;;;2.20;1.10;;;10.50;36.10;;;;;;5011773;28;20184;-68
2022/11/20 07:56:17;;;;;;;2.40;1.30;;;10.20;37.20;;;;;;5014114;28;20304;-68
2022/11/20 07:58:42;;;;;;;2.30;1.20;;;9.90;36.90;;;;;;5012526;28;20685;-68
2022/11/20 08:01:08;;;;;;;2.40;1.20;;;10.30;37.00;;;;;;5012282;28;20436;-67
2022/11/20 08:03:34;;;;;;;2.20;1.10;;;10.40;35.40;;;;;;5011483;28;20161;-68
2022/11/20 08:06:01;;;;;;;2.17;1.00;;;10.30;35.90;;;;;;5012341;28;20427;-68
2022/11/20 08:08:27;;;;;;;2.20;1.10;;;10.20;36.40;;;;;;5003332;28;20692;-68
2022/11/20 08:14:11;;;;;;;2.40;1.20;;;10.50;36.70;;;;;;5011451;28;20187;-68
2022/11/20 08:16:23;;;;;;;7.65;4.25;;;10.60;35.20;;;;;;5012507;28;20364;-68
2022/11/20 08:18:49;;;;;;;2.40;1.20;;;10.60;35.50;;;;;;5004153;28;20704;-68
2022/11/20 08:21:15;;;;;;;2.72;1.40;;;10.80;35.10;;;;;;5003791;28;20683;-68
2022/11/20 08:23:40;;;;;;;2.27;1.13;;;10.70;35.00;;;;;;5002489;28;20220;-66
2022/11/20 08:26:06;;;;;;;2.50;1.57;;;10.70;35.30;;;;;;5012225;28;20192;-69
2022/11/20 08:28:32;;;;;;;2.50;1.10;;;10.10;37.10;;;;;;5011755;28;20286;-68
2022/11/20 08:30:59;;;;;;;2.40;1.10;;;10.20;36.40;;;;;;5010430;28;20570;-68
2022/11/20 08:33:25;;;;;;;2.30;1.10;;;10.30;36.70;;;;;;5011500;28;20426;-68
2022/11/20 08:35:51;;;;;;;2.30;1.10;;;9.70;38.90;;;;;;5010220;28;20691;-69
2022/11/20 08:38:16;;;;;;;2.20;1.10;;;9.70;38.90;;;;;;5010812;28;20200;-68
2022/11/20 08:41:23;;;;;;;2.67;1.30;;;9.70;39.60;;;;;;5011500;28;20191;-69
2022/11/20 08:43:27;;;;;;;2.28;1.10;;;10.20;36.90;;;;;;5011318;28;20763;-69
2022/11/20 08:45:53;;;;;;;2.80;1.57;;;10.30;36.40;;;;;;5011343;28;20284;-67
2022/11/20 08:48:18;;;;;;;2.40;1.10;;;10.30;36.70;;;;;;4999763;28;20199;-67
2022/11/20 08:50:44;;;;;;;3.13;1.40;;;10.00;37.50;;;;;;5010926;28;20263;-68
2022/11/20 08:53:09;;;;;;;2.53;1.23;;;10.10;37.20;;;;;;5011031;28;20263;-69
2022/11/20 08:55:36;;;;;;;2.30;1.10;;;10.00;37.60;;;;;;5014427;28;20208;-68
2022/11/20 08:58:05;;;;;;;2.30;1.10;;;9.80;38.60;;;;;;4996582;28;20300;-68
2022/11/20 09:00:32;;;;;;;2.30;1.10;;;10.10;38.20;;;;;;5014791;28;20188;-68
2022/11/20 09:02:58;;;;;;;2.20;1.10;;;10.20;37.00;;;;;;5014612;28;20205;-67
2022/11/20 09:05:24;;;;;;;2.40;1.10;;;9.60;39.50;;;;;;5010728;28;20218;-68
2022/11/20 09:07:50;;;;;;;3.13;1.40;;;10.00;38.20;;;;;;5015573;28;20269;-67
2022/11/20 09:10:15;;;;;;;2.43;1.10;;;10.20;37.50;;;;;;5013190;28;20443;-67
2022/11/20 09:12:41;;;;;;;2.50;1.20;;;10.30;37.10;;;;;;5012494;28;20661;-67
2022/11/20 09:15:07;;;;;;;2.30;1.00;;;10.40;37.40;;;;;;5010262;28;20228;-68
2022/11/20 09:17:33;;;;;;;2.30;1.10;;;10.70;37.30;;;;;;5004199;28;20196;-67
2022/11/20 09:19:58;;;;;;;2.30;1.07;;;10.60;37.40;;;;;;5009973;28;20626;-67
2022/11/20 09:22:24;;;;;;;2.33;1.10;;;10.10;39.00;;;;;;5013187;28;20169;-66
2022/11/20 09:24:49;;;;;;;2.40;1.10;;;9.70;41.30;;;;;;5013865;28;20223;-66
2022/11/20 09:27:20;;;;;;;2.50;1.10;;;9.20;42.30;;;;;;5016273;28;20263;-67
2022/11/20 09:29:46;;;;;;;2.20;1.10;;;9.30;41.90;;;;;;5010622;28;20320;-67
2022/11/20 09:32:11;;;;;;;2.30;1.13;;;9.20;42.10;;;;;;5009653;28;20334;-67
2022/11/20 09:34:37;;;;;;;2.40;1.10;;;9.40;41.90;;;;;;5008162;28;20230;-67
2022/11/20 09:37:02;;;;;;;2.30;1.10;;;9.60;41.40;;;;;;5017337;28;20201;-66
2022/11/20 09:39:28;;;;;;;2.27;1.10;;;9.30;42.50;;;;;;5001142;28;20673;-66
2022/11/20 09:42:28;;;;;;;2.30;1.10;;;9.80;42.00;;;;;;5006892;28;20189;-67
2022/11/20 09:45:06;;;;;;;2.40;1.20;;;9.80;42.10;;;;;;5014190;28;20590;-66
2022/11/20 09:48:05;;;;;;;2.20;1.02;;;9.50;42.90;;;;;;5015588;28;20169;-67
2022/11/20 09:50:34;;;;;;;2.20;1.10;;;9.60;42.80;;;;;;5014273;28;20205;-67
2022/11/20 09:53:36;;;;;;;2.38;1.17;;;9.50;42.80;;;;;;5014183;28;20191;-69
2022/11/20 09:56:04;;;;;;;2.25;1.10;;;9.30;44.50;;;;;;5012755;28;20263;-69
2022/11/20 09:58:47;;;;;;;2.20;1.10;;;10.00;42.40;;;;;;5011169;28;20198;-69
2022/11/20 10:01:15;;;;;;;2.38;1.20;;;9.30;45.20;;;;;;5010662;28;20203;-70
2022/11/20 10:04:02;;;;;;;2.20;1.10;;;9.70;44.60;;;;;;5005513;28;20180;-68
2022/11/20 10:06:34;;;;;;;2.20;1.10;;;9.70;44.40;;;;;;5012223;28;20311;-69
2022/11/20 10:09:11;;;;;;;2.20;1.10;;;10.30;41.20;;;;;;5005425;28;20283;-69
2022/11/20 10:11:52;;;;;;;2.30;1.20;;;9.60;43.90;;;;;;5002424;28;20192;-69
2022/11/20 10:14:23;;;;;;;2.20;1.10;;;9.20;46.20;;;;;;5011286;28;20188;-69
2022/11/20 10:17:16;;;;;;;3.20;1.42;;;9.70;44.40;;;;;;5019009;28;20235;-70
2022/11/20 10:19:42;;;;;;;2.20;1.10;;;9.50;45.40;;;;;;5010611;28;20193;-69
2022/11/20 10:22:35;;;;;;;2.30;1.10;;;9.70;43.80;;;;;;5006446;28;20181;-69
2022/11/20 10:25:19;;;;;;;2.28;1.20;;;9.80;44.20;;;;;;5010555;28;20197;-69
2022/11/20 10:28:22;;;;;;;2.30;1.20;;;10.10;43.10;;;;;;5015318;28;20179;-69
2022/11/20 10:30:56;;;;;;;2.20;1.10;;;10.80;40.60;;;;;;5004766;28;20283;-72
2022/11/20 10:33:23;;;;;;;2.20;1.10;;;10.30;41.50;;;;;;5011995;28;20180;-72
2022/11/20 10:36:09;;;;;;;2.45;1.10;;;10.50;41.70;;;;;;5011002;28;20209;-73
2022/11/20 10:38:59;;;;;;;2.30;1.20;;;10.00;41.90;;;;;;5010581;28;20227;-75
2022/11/20 10:41:34;;;;;;;3.15;1.40;;;9.80;44.30;;;;;;5007255;28;20181;-73
2022/11/20 10:43:59;;;;;;;2.30;1.10;;;10.40;42.30;;;;;;5004652;28;21024;-75
2022/11/20 10:46:30;;;;;;;2.30;1.20;;;10.50;41.40;;;;;;5012352;28;20216;-74
2022/11/20 10:48:55;;;;;;;3.10;1.83;;;10.80;41.90;;;;;;5013828;28;20196;-74
2022/11/20 10:51:36;;;;;;;2.30;1.10;;;11.00;40.30;;;;;;5012581;28;20619;-74
2022/11/20 10:54:39;;;;;;;2.30;1.10;;;10.60;40.80;;;;;;5019502;28;20238;-73
2022/11/20 10:57:13;;;;;;;2.60;1.15;;;10.00;43.10;;;;;;5010313;28;20208;-72
2022/11/20 11:00:01;;;;;;;2.30;1.05;;;10.20;43.40;;;;;;5014013;28;20649;-71
2022/11/20 11:02:44;;;;;;;2.28;1.10;;;10.30;43.10;;;;;;5004688;28;20641;-73
2022/11/20 11:05:35;;;;;;;2.20;1.00;;;10.20;43.50;;;;;;5006632;28;20264;-71
2022/11/20 11:08:04;;;;;;;2.70;1.10;;;10.40;43.40;;;;;;5012061;28;20231;-72
2022/11/20 11:10:53;;;;;;;2.30;1.15;;;10.30;42.80;;;;;;5016886;28;20581;-72
2022/11/20 11:13:24;;;;;;;2.30;1.10;;;10.40;43.60;;;;;;5011687;28;20201;-72
2022/11/20 11:15:50;;;;;;;2.25;1.10;;;10.20;43.70;;;;;;5004553;28;20205;-72
2022/11/20 11:18:27;;;;;;;2.30;1.00;;;10.40;43.60;;;;;;5012731;28;20197;-72
2022/11/20 11:20:54;;;;;;;2.25;1.08;;;10.50;44.10;;;;;;5016823;28;20623;-72
2022/11/20 11:23:36;;;;;;;2.40;1.10;;;10.50;43.40;;;;;;5005453;28;20185;-73
2022/11/20 11:26:04;;;;;;;2.35;1.20;;;10.50;44.50;;;;;;5003468;28;20232;-71
2022/11/20 11:28:30;;;;;;;2.30;1.10;;;11.10;41.90;;;;;;5005272;28;20315;-72
2022/11/20 11:30:56;;;;;;;2.50;1.10;;;11.00;42.00;;;;;;5007841;28;20181;-72
2022/11/20 11:33:25;;;;;;;2.30;1.13;;;11.30;40.10;;;;;;5010463;28;20521;-73
2022/11/20 11:35:58;;;;;;;3.23;1.67;;;11.50;40.50;;;;;;5007423;28;20204;-72
2022/11/20 11:38:37;;;;;;;2.70;1.30;;;11.00;41.90;;;;;;5009398;28;20466;-73
2022/11/20 11:41:06;;;;;;;2.70;1.30;;;11.30;40.40;;;;;;5012641;28;20420;-73
2022/11/20 11:46:30;;;;;;;2.67;1.10;;;12.10;37.70;;;;;;5002790;28;20412;-72
2022/11/20 11:49:20;;;;;;;2.73;1.10;;;12.60;36.40;;;;;;5012626;28;20459;-72
2022/11/20 11:52:05;;;;;;;2.90;1.13;;;13.10;36.90;;;;;;5008417;28;20435;-72
2022/11/20 11:54:45;;;;;;;2.90;1.20;;;12.60;34.80;;;;;;5019226;28;20413;-79
2022/11/20 11:57:36;;;;;;;2.97;1.10;;;12.70;35.50;;;;;;5016662;28;20459;-73
2022/11/20 12:00:16;;;;;;;2.97;1.23;;;12.80;35.00;;;;;;5007555;28;20447;-73
2022/11/20 12:02:44;;;;;;;2.93;1.10;;;12.40;35.70;;;;;;5012784;28;20522;-71
2022/11/20 12:05:32;;;;;;;2.80;1.10;;;12.10;36.00;;;;;;5015733;28;20428;-72
2022/11/20 12:08:12;;;;;;;3.97;1.70;;;11.60;37.30;;;;;;5011077;28;20424;-72
2022/11/20 12:11:26;;;;;;;2.90;1.30;;;11.90;36.10;;;;;;5006079;28;20420;-73
2022/11/20 12:14:03;;;;;;;2.83;1.20;;;12.40;35.70;;;;;;5024601;28;20442;-72
2022/11/20 12:16:35;;;;;;;2.70;1.10;;;11.70;37.80;;;;;;4991135;28;20465;-72
2022/11/20 12:19:00;;;;;;;3.10;1.27;;;12.50;35.50;;;;;;5001095;28;20479;-71
2022/11/20 12:21:38;;;;;;;2.87;1.10;;;12.40;34.10;;;;;;5012518;28;20420;-73
2022/11/20 12:24:17;;;;;;;3.00;1.23;;;12.30;34.80;;;;;;4995652;28;20664;-76
2022/11/20 12:26:58;;;;;;;3.00;1.20;;;11.70;35.90;;;;;;5013341;28;20408;-75
2022/11/20 12:29:51;;;;;;;3.00;1.20;;;11.80;35.70;;;;;;5010789;28;20455;-75
2022/11/20 12:32:18;;;;;;;2.80;1.13;;;11.50;36.10;;;;;;5007889;28;20444;-74
2022/11/20 12:35:00;;;;;;;2.87;1.27;;;11.20;36.50;;;;;;5009983;28;20770;-74
2022/11/20 12:37:28;;;;;;;2.80;1.20;;;11.10;37.20;;;;;;5012699;28;20538;-75
2022/11/20 12:40:00;;;;;;;2.70;1.10;;;10.80;38.80;;;;;;5021330;28;20474;-75
2022/11/20 12:45:36;;;;;;;2.70;1.20;;;11.50;36.60;;;;;;5008708;28;20586;-75
2022/11/20 12:48:13;;;;;;;2.60;1.10;;;11.00;38.20;;;;;;5010285;28;20534;-75
2022/11/20 12:50:42;;;;;;;3.50;1.30;;;10.70;39.80;;;;;;5018718;28;20450;-73
2022/11/20 12:53:20;;;;;;;2.53;1.00;;;11.00;39.50;;;;;;5013481;28;20478;-73
2022/11/20 12:56:19;;;;;;;2.77;1.30;;;11.00;38.60;;;;;;5004617;28;20283;-73
2022/11/20 12:58:57;;;;;;;2.60;1.10;;;10.70;39.70;;;;;;5008418;28;21021;-74
2022/11/20 13:01:43;;;;;;;2.50;1.10;;;11.10;39.00;;;;;;5013078;28;20443;-76
2022/11/20 13:04:44;;;;;;;2.50;1.10;;;11.30;39.10;;;;;;5017830;28;20411;-76
2022/11/20 13:07:14;;;;;;;2.53;1.10;;;11.90;37.60;;;;;;5004206;28;20182;-76
2022/11/20 13:09:46;;;;;;;3.45;1.30;;;12.40;36.00;;;;;;5011285;28;20201;-74
2022/11/20 13:12:15;;;;;;;2.80;1.30;;;12.80;35.00;;;;;;5008115;28;20177;-74
2022/11/20 13:14:57;;;;;;;2.58;1.20;;;12.10;35.80;;;;;;5012189;28;20911;-74
2022/11/20 13:17:41;;;;;;;2.40;1.00;;;11.60;35.50;;;;;;5020839;28;20229;-75
2022/11/20 13:20:14;;;;;;;2.50;1.08;;;11.10;37.10;;;;;;5008642;28;20707;-75